Time;durP1;ratioP1;P1;durP2;ratioP2;P2;SDS_P1;SDS_P2;PMS_P1;PMS_P2;Temp;Humidity;BMP_temperature;BMP_pressure;BME280_temperature;BME280_humidity;BME280_pressure;Samples;Min_cycle;Max_cycle;Signal;HPM_P1;HPM_P2
2022/02/25 00:00:08;;;;;;;37.33;20.80;;;;;;;;;;6306484;28;20120;-64
2022/02/25 00:03:13;;;;;;;37.28;20.13;;;;;;;;;;6305749;28;20537;-65
2022/02/25 00:06:14;;;;;;;37.20;20.10;;;;;;;;;;6300724;28;20109;-64
2022/02/25 00:09:17;;;;;;;37.58;20.88;;;;;;;;;;6302703;28;20483;-64
2022/02/25 00:12:19;;;;;;;42.13;20.42;;;;;;;;;;6304330;28;20128;-63
2022/02/25 00:15:20;;;;;;;38.10;20.90;;;;;;;;;;6304514;28;20056;-64
2022/02/25 00:18:22;;;;;;;37.90;22.23;;;;;;;;;;6307492;28;20075;-63
2022/02/25 00:21:23;;;;;;;39.83;22.08;;;;;;;;;;6304999;28;20127;-65
2022/02/25 00:24:27;;;;;;;35.78;22.35;;;;;;;;;;6300853;28;20052;-65
2022/02/25 00:27:29;;;;;;;43.05;21.98;;;;;;;;;;6308680;28;20519;-65
2022/02/25 00:30:30;;;;;;;38.20;21.20;;;;;;;;;;6303316;28;20437;-63
2022/02/25 00:33:32;;;;;;;36.92;21.65;;;;;;;;;;6304213;28;20052;-64
2022/02/25 00:36:33;;;;;;;42.83;23.25;;;;;;;;;;6304805;28;20059;-66
2022/02/25 00:39:36;;;;;;;45.28;24.83;;;;;;;;;;6301985;28;20061;-65
2022/02/25 00:42:38;;;;;;;38.40;22.42;;;;;;;;;;6297967;28;20040;-62
2022/02/25 00:45:40;;;;;;;42.42;22.27;;;;;;;;;;6301670;28;20596;-63
2022/02/25 00:48:41;;;;;;;40.70;21.75;;;;;;;;;;6303371;28;20182;-62
2022/02/25 00:51:43;;;;;;;40.17;22.05;;;;;;;;;;6302638;28;20129;-63
2022/02/25 00:54:46;;;;;;;37.88;22.25;;;;;;;;;;6308979;28;20515;-64
2022/02/25 00:57:47;;;;;;;38.97;22.77;;;;;;;;;;6307908;28;20055;-62
2022/02/25 01:00:49;;;;;;;40.13;22.70;;;;;;;;;;6309147;28;20041;-63
2022/02/25 01:03:51;;;;;;;41.70;23.27;;;;;;;;;;6312657;28;20126;-65
2022/02/25 01:06:52;;;;;;;39.63;22.92;;;;;;;;;;6315000;28;20049;-63
2022/02/25 01:09:55;;;;;;;42.78;22.70;;;;;;;;;;6311203;28;20064;-64
2022/02/25 01:12:57;;;;;;;34.95;21.50;;;;;;;;;;6310022;28;20040;-65
2022/02/25 01:15:58;;;;;;;41.33;22.60;;;;;;;;;;6307810;28;20052;-65
2022/02/25 01:19:00;;;;;;;41.85;23.17;;;;;;;;;;6309937;28;20044;-66
2022/02/25 01:22:02;;;;;;;39.30;21.95;;;;;;;;;;6303050;28;20090;-64
2022/02/25 01:25:06;;;;;;;41.20;23.67;;;;;;;;;;6302856;28;20060;-64
2022/02/25 01:28:07;;;;;;;41.60;22.52;;;;;;;;;;6313972;28;20134;-64
2022/02/25 01:31:09;;;;;;;39.08;22.45;;;;;;;;;;6306970;28;20132;-64
2022/02/25 01:34:10;;;;;;;38.03;22.70;;;;;;;;;;6313199;28;20123;-63
2022/02/25 01:37:12;;;;;;;38.72;22.05;;;;;;;;;;6312986;28;20062;-66
2022/02/25 01:40:15;;;;;;;43.67;21.15;;;;;;;;;;6309225;28;20040;-63
2022/02/25 01:43:17;;;;;;;38.00;21.87;;;;;;;;;;6306166;28;20127;-64
2022/02/25 01:46:19;;;;;;;39.20;21.80;;;;;;;;;;6310608;28;20476;-65
2022/02/25 01:49:21;;;;;;;37.63;21.75;;;;;;;;;;6312448;28;20139;-62
2022/02/25 01:52:22;;;;;;;34.75;21.15;;;;;;;;;;6309374;28;20048;-65
2022/02/25 01:55:25;;;;;;;39.05;20.98;;;;;;;;;;6305438;28;20117;-62
2022/02/25 01:58:28;;;;;;;36.83;21.35;;;;;;;;;;6309122;28;20105;-63
2022/02/25 02:01:30;;;;;;;36.20;20.40;;;;;;;;;;6307235;28;20102;-64
2022/02/25 02:04:31;;;;;;;33.88;20.48;;;;;;;;;;6309761;28;20205;-64
2022/02/25 02:07:33;;;;;;;37.20;20.23;;;;;;;;;;6307570;28;20044;-64
2022/02/25 02:10:36;;;;;;;31.60;19.45;;;;;;;;;;6307748;28;20416;-65
2022/02/25 02:13:37;;;;;;;33.10;19.15;;;;;;;;;;6308702;28;20102;-65
2022/02/25 02:16:40;;;;;;;36.38;19.90;;;;;;;;;;6304409;28;20046;-63
2022/02/25 02:19:41;;;;;;;35.72;20.48;;;;;;;;;;6310530;28;20035;-63
2022/02/25 02:22:44;;;;;;;33.42;18.40;;;;;;;;;;6300458;28;20051;-63
2022/02/25 02:25:46;;;;;;;30.33;18.00;;;;;;;;;;6309647;28;20091;-63
2022/02/25 02:28:47;;;;;;;35.35;18.77;;;;;;;;;;6309988;28;20105;-63
2022/02/25 02:31:49;;;;;;;28.52;18.73;;;;;;;;;;6308561;28;20076;-65
2022/02/25 02:34:50;;;;;;;30.13;18.05;;;;;;;;;;6308278;28;20552;-64
2022/02/25 02:37:53;;;;;;;31.95;18.08;;;;;;;;;;6315408;28;20044;-64
2022/02/25 02:40:55;;;;;;;33.72;18.67;;;;;;;;;;6314521;28;20044;-63
2022/02/25 02:43:56;;;;;;;32.58;18.48;;;;;;;;;;6312038;28;20086;-64
2022/02/25 02:46:58;;;;;;;29.15;17.73;;;;;;;;;;6311158;28;20112;-64
2022/02/25 02:49:59;;;;;;;34.03;18.40;;;;;;;;;;6307817;28;20647;-63
2022/02/25 02:53:02;;;;;;;30.73;17.33;;;;;;;;;;6306096;28;20174;-64
2022/02/25 02:56:05;;;;;;;29.58;18.02;;;;;;;;;;6308041;28;20101;-64
2022/02/25 02:59:06;;;;;;;29.05;16.27;;;;;;;;;;6300472;28;20145;-64
2022/02/25 03:02:08;;;;;;;29.90;17.92;;;;;;;;;;6302280;28;20078;-64
2022/02/25 03:05:10;;;;;;;32.20;17.55;;;;;;;;;;6299586;28;20131;-63
2022/02/25 03:08:13;;;;;;;28.05;18.17;;;;;;;;;;6305029;28;20110;-64
2022/02/25 03:11:15;;;;;;;26.55;17.23;;;;;;;;;;6309999;28;20125;-63
2022/02/25 03:14:16;;;;;;;29.10;17.42;;;;;;;;;;6314231;28;20048;-64
2022/02/25 03:17:18;;;;;;;32.45;17.65;;;;;;;;;;6313088;28;20137;-62
2022/02/25 03:20:22;;;;;;;28.52;18.20;;;;;;;;;;6308424;28;20131;-65
2022/02/25 03:23:24;;;;;;;28.58;17.58;;;;;;;;;;6309063;28;20044;-62
2022/02/25 03:26:26;;;;;;;29.80;16.48;;;;;;;;;;6310368;28;20048;-63
2022/02/25 03:29:28;;;;;;;30.48;17.08;;;;;;;;;;6311972;28;20496;-64
2022/02/25 03:32:29;;;;;;;30.67;17.45;;;;;;;;;;6307545;28;20547;-62
2022/02/25 03:35:32;;;;;;;26.23;16.85;;;;;;;;;;6304730;28;20166;-63
2022/02/25 03:38:35;;;;;;;30.50;17.73;;;;;;;;;;6304075;28;20057;-63
2022/02/25 03:41:36;;;;;;;32.17;17.23;;;;;;;;;;6301249;28;20191;-63
2022/02/25 03:44:38;;;;;;;27.23;16.92;;;;;;;;;;6309271;28;20404;-63
2022/02/25 03:47:39;;;;;;;28.73;17.20;;;;;;;;;;6314901;28;20083;-62
2022/02/25 03:50:41;;;;;;;29.83;16.52;;;;;;;;;;6317923;28;20174;-63
2022/02/25 03:53:44;;;;;;;29.88;16.48;;;;;;;;;;6307244;28;20128;-62
2022/02/25 03:56:46;;;;;;;29.52;17.00;;;;;;;;;;6312726;28;20066;-62
2022/02/25 03:59:47;;;;;;;27.35;17.35;;;;;;;;;;6308450;28;20127;-62
2022/02/25 04:02:49;;;;;;;29.58;17.23;;;;;;;;;;6308607;28;20431;-62
2022/02/25 04:05:51;;;;;;;30.08;17.52;;;;;;;;;;6307850;28;20123;-62
2022/02/25 04:08:54;;;;;;;27.75;17.52;;;;;;;;;;6307713;28;20129;-63
2022/02/25 04:11:55;;;;;;;32.35;16.77;;;;;;;;;;6306945;28;20497;-63
2022/02/25 04:14:57;;;;;;;31.95;16.33;;;;;;;;;;6305132;28;20067;-62
2022/02/25 04:17:58;;;;;;;27.23;16.92;;;;;;;;;;6307380;28;20044;-63
2022/02/25 04:21:00;;;;;;;28.42;17.40;;;;;;;;;;6310696;28;20074;-62
2022/02/25 04:24:03;;;;;;;27.98;16.33;;;;;;;;;;6305802;28;20127;-64
2022/02/25 04:27:05;;;;;;;32.13;17.10;;;;;;;;;;6314558;28;20127;-62
2022/02/25 04:30:08;;;;;;;29.63;16.75;;;;;;;;;;6314015;28;20044;-63
2022/02/25 04:33:09;;;;;;;29.02;16.42;;;;;;;;;;6306646;28;20162;-63
2022/02/25 04:36:11;;;;;;;29.77;16.48;;;;;;;;;;6308965;28;20065;-62
2022/02/25 04:39:14;;;;;;;25.48;16.55;;;;;;;;;;6311242;28;20052;-63
2022/02/25 04:42:16;;;;;;;26.58;15.75;;;;;;;;;;6309348;28;20135;-63
2022/02/25 04:45:18;;;;;;;28.95;17.10;;;;;;;;;;6310866;28;20570;-62
2022/02/25 04:48:19;;;;;;;26.05;14.82;;;;;;;;;;6312164;28;20109;-62
2022/02/25 04:51:22;;;;;;;26.90;14.77;;;;;;;;;;6307314;28;20044;-63
2022/02/25 04:54:25;;;;;;;28.88;15.40;;;;;;;;;;6306430;28;20412;-63
2022/02/25 04:57:26;;;;;;;29.20;15.77;;;;;;;;;;6311637;28;20478;-63
2022/02/25 05:00:28;;;;;;;27.35;14.85;;;;;;;;;;6311009;28;20048;-63
2022/02/25 05:03:30;;;;;;;25.77;14.90;;;;;;;;;;6307584;28;20051;-63
2022/02/25 05:06:32;;;;;;;26.35;15.70;;;;;;;;;;6316836;28;20484;-62
2022/02/25 05:09:35;;;;;;;27.40;14.02;;;;;;;;;;6313961;28;20120;-62
2022/02/25 05:12:37;;;;;;;22.70;14.13;;;;;;;;;;6311992;28;20071;-64
2022/02/25 05:22:23;;;;;;;25.73;14.27;;;;;;;;;;6272549;28;20044;-62
2022/02/25 05:25:26;;;;;;;25.20;14.73;;;;;;;;;;6309332;28;20048;-63
2022/02/25 05:28:28;;;;;;;26.90;14.00;;;;;;;;;;6306116;28;20124;-62
2022/02/25 05:31:30;;;;;;;25.33;14.95;;;;;;;;;;6306347;28;20049;-64
2022/02/25 05:34:31;;;;;;;26.58;13.90;;;;;;;;;;6312746;28;20060;-62
2022/02/25 05:37:33;;;;;;;23.42;14.18;;;;;;;;;;6310972;28;20400;-63
2022/02/25 05:40:36;;;;;;;31.85;15.13;;;;;;;;;;6314723;28;20127;-62
2022/02/25 05:43:37;;;;;;;22.15;13.52;;;;;;;;;;6310508;28;20084;-63
2022/02/25 05:46:39;;;;;;;23.83;14.25;;;;;;;;;;6313906;28;20053;-63
2022/02/25 05:49:41;;;;;;;25.23;13.50;;;;;;;;;;6311280;28;20530;-63
2022/02/25 05:52:43;;;;;;;21.17;14.02;;;;;;;;;;6314576;28;20124;-63
2022/02/25 05:55:46;;;;;;;23.70;13.77;;;;;;;;;;6311980;28;20068;-62
2022/02/25 05:58:48;;;;;;;25.38;14.45;;;;;;;;;;6312306;28;20051;-63
2022/02/25 06:01:49;;;;;;;22.13;13.32;;;;;;;;;;6310409;28;20162;-63
2022/02/25 06:04:51;;;;;;;23.38;13.75;;;;;;;;;;6306739;28;20052;-62
2022/02/25 06:07:52;;;;;;;25.33;14.32;;;;;;;;;;6310680;28;20119;-61
2022/02/25 06:10:55;;;;;;;25.50;13.98;;;;;;;;;;6314324;28;20497;-64
2022/02/25 06:13:57;;;;;;;27.40;13.88;;;;;;;;;;6310638;28;20418;-65
2022/02/25 06:16:58;;;;;;;21.30;13.80;;;;;;;;;;6309208;28;20221;-62
2022/02/25 06:20:00;;;;;;;19.52;13.13;;;;;;;;;;6308172;28;20064;-64
2022/02/25 06:23:03;;;;;;;23.67;13.43;;;;;;;;;;6307373;28;20052;-64
2022/02/25 06:26:06;;;;;;;22.43;12.77;;;;;;;;;;6306740;28;20056;-62
2022/02/25 06:29:08;;;;;;;24.70;13.25;;;;;;;;;;6307067;28;20117;-63
2022/02/25 06:32:10;;;;;;;19.60;12.45;;;;;;;;;;6310113;28;20058;-65
2022/02/25 06:35:11;;;;;;;20.52;13.40;;;;;;;;;;6310912;28;20056;-65
2022/02/25 06:38:13;;;;;;;27.33;12.60;;;;;;;;;;6306759;28;20051;-62
2022/02/25 06:41:16;;;;;;;20.27;12.48;;;;;;;;;;6314227;28;20497;-63
2022/02/25 06:44:18;;;;;;;22.73;13.23;;;;;;;;;;6311496;28;20055;-64
2022/02/25 06:47:19;;;;;;;22.50;12.85;;;;;;;;;;6306266;28;20045;-64
2022/02/25 06:50:21;;;;;;;21.63;13.35;;;;;;;;;;6304163;28;20048;-62
2022/02/25 06:53:23;;;;;;;21.30;12.23;;;;;;;;;;6306401;28;20123;-66
2022/02/25 06:56:26;;;;;;;22.27;12.07;;;;;;;;;;6304244;28;20102;-63
2022/02/25 06:59:28;;;;;;;19.80;12.52;;;;;;;;;;6300050;28;20113;-64
2022/02/25 07:02:30;;;;;;;21.95;12.95;;;;;;;;;;6309056;28;20044;-64
2022/02/25 07:05:32;;;;;;;22.67;14.60;;;;;;;;;;6305967;28;20044;-62
2022/02/25 07:08:34;;;;;;;33.25;17.80;;;;;;;;;;6306272;28;20040;-64
2022/02/25 07:11:37;;;;;;;29.67;18.10;;;;;;;;;;6307865;28;20044;-63
2022/02/25 07:14:39;;;;;;;34.63;18.77;;;;;;;;;;6307655;28;20046;-64
2022/02/25 07:17:40;;;;;;;31.70;18.27;;;;;;;;;;6309898;28;20041;-63
2022/02/25 07:20:43;;;;;;;28.00;18.48;;;;;;;;;;6305623;28;20700;-63
2022/02/25 07:23:44;;;;;;;30.20;15.82;;;;;;;;;;6307740;28;20049;-63
2022/02/25 07:26:47;;;;;;;28.95;15.57;;;;;;;;;;6305754;28;20062;-63
2022/02/25 07:29:49;;;;;;;25.10;14.38;;;;;;;;;;6303815;28;20075;-63
2022/02/25 07:32:51;;;;;;;25.73;14.13;;;;;;;;;;6306329;28;20091;-63
2022/02/25 07:35:53;;;;;;;20.15;13.57;;;;;;;;;;6303782;28;20230;-62
2022/02/25 07:38:55;;;;;;;24.10;14.38;;;;;;;;;;6302670;28;20136;-66
2022/02/25 07:41:59;;;;;;;95.38;17.88;;;;;;;;;;6302161;28;20515;-64
2022/02/25 07:45:01;;;;;;;25.00;13.65;;;;;;;;;;6305855;28;20051;-64
2022/02/25 07:48:03;;;;;;;26.55;11.82;;;;;;;;;;6305597;28;20169;-64
2022/02/25 07:51:04;;;;;;;54.58;14.98;;;;;;;;;;6309662;28;20051;-64
2022/02/25 07:54:06;;;;;;;25.38;12.60;;;;;;;;;;6310910;28;20052;-64
2022/02/25 07:57:09;;;;;;;24.38;12.68;;;;;;;;;;6311243;28;20712;-63
2022/02/25 08:00:15;;;;;;;19.80;12.33;;;;;;;;;;6306992;28;20392;-63
2022/02/25 08:03:17;;;;;;;48.58;14.50;;;;;;;;;;6306707;28;20599;-64
2022/02/25 08:06:18;;;;;;;46.15;16.85;;;;;;;;;;6306579;28;20119;-63
2022/02/25 08:09:21;;;;;;;33.42;16.95;;;;;;;;;;6304475;28;20086;-63
2022/02/25 08:12:24;;;;;;;54.95;17.77;;;;;;;;;;6306160;28;20169;-63
2022/02/25 08:15:26;;;;;;;31.67;16.67;;;;;;;;;;6303300;28;20131;-63
2022/02/25 08:18:27;;;;;;;43.30;18.55;;;;;;;;;;6304706;28;20048;-64
2022/02/25 08:21:29;;;;;;;151.13;25.15;;;;;;;;;;6298876;28;20049;-63
2022/02/25 08:24:30;;;;;;;91.72;20.05;;;;;;;;;;6299384;28;20631;-63
2022/02/25 08:27:33;;;;;;;21.63;14.20;;;;;;;;;;6311071;28;20071;-63
2022/02/25 08:30:35;;;;;;;25.02;15.15;;;;;;;;;;6310557;28;20036;-63
2022/02/25 08:33:37;;;;;;;27.13;16.13;;;;;;;;;;6308384;28;20045;-62
2022/02/25 08:36:38;;;;;;;28.23;16.15;;;;;;;;;;6305560;28;20563;-63
2022/02/25 08:39:40;;;;;;;31.17;17.70;;;;;;;;;;6304076;28;20044;-63
2022/02/25 08:42:43;;;;;;;29.85;17.65;;;;;;;;;;6306619;28;20052;-64
2022/02/25 08:45:45;;;;;;;50.63;20.43;;;;;;;;;;6304269;28;20162;-62
2022/02/25 08:48:47;;;;;;;29.75;18.80;;;;;;;;;;6303984;28;20518;-65
2022/02/25 08:51:49;;;;;;;30.70;18.67;;;;;;;;;;6300490;28;20161;-65
2022/02/25 08:54:50;;;;;;;37.45;19.27;;;;;;;;;;6301049;28;20128;-64
2022/02/25 08:57:54;;;;;;;31.27;19.15;;;;;;;;;;6293758;28;20055;-65
2022/02/25 09:00:56;;;;;;;30.73;18.92;;;;;;;;;;6303522;28;20058;-65
2022/02/25 09:04:00;;;;;;;29.63;19.48;;;;;;;;;;6303003;28;20090;-64
2022/02/25 09:07:02;;;;;;;34.45;18.77;;;;;;;;;;6309001;28;20060;-65
2022/02/25 09:10:04;;;;;;;44.17;18.52;;;;;;;;;;6309128;28;20194;-65
2022/02/25 09:13:07;;;;;;;34.17;15.93;;;;;;;;;;6309172;28;20135;-65
2022/02/25 09:16:09;;;;;;;61.25;20.08;;;;;;;;;;6307492;28;20044;-62
2022/02/25 09:19:11;;;;;;;85.95;21.27;;;;;;;;;;6306153;28;20194;-62
2022/02/25 09:22:13;;;;;;;32.80;16.27;;;;;;;;;;6304356;28;20048;-63
2022/02/25 09:25:15;;;;;;;35.47;15.80;;;;;;;;;;6306642;28;20450;-64
2022/02/25 09:28:18;;;;;;;32.33;16.27;;;;;;;;;;6307058;28;20044;-64
2022/02/25 09:31:20;;;;;;;33.70;16.70;;;;;;;;;;6307206;28;20131;-64
2022/02/25 09:34:21;;;;;;;64.10;20.00;;;;;;;;;;6309186;28;20097;-63
2022/02/25 09:37:23;;;;;;;54.60;19.85;;;;;;;;;;6311470;28;20415;-63
2022/02/25 09:40:25;;;;;;;32.97;17.80;;;;;;;;;;6308684;28;20129;-63
2022/02/25 09:43:29;;;;;;;34.88;17.75;;;;;;;;;;6307775;28;20052;-64
2022/02/25 09:46:31;;;;;;;35.35;16.95;;;;;;;;;;6314015;28;20059;-63
2022/02/25 09:49:32;;;;;;;61.92;20.88;;;;;;;;;;6312231;28;20400;-63
2022/02/25 09:52:36;;;;;;;41.55;19.10;;;;;;;;;;6310860;28;20076;-64
2022/02/25 09:55:37;;;;;;;37.75;19.52;;;;;;;;;;6306640;28;20048;-63
2022/02/25 09:58:40;;;;;;;37.55;19.27;;;;;;;;;;6306248;28;20044;-63
2022/02/25 10:01:42;;;;;;;35.47;18.63;;;;;;;;;;6304942;28;20040;-64
2022/02/25 10:04:43;;;;;;;36.13;19.13;;;;;;;;;;6304572;28;20047;-64
2022/02/25 10:07:45;;;;;;;43.63;20.70;;;;;;;;;;6300125;28;20045;-64
2022/02/25 10:10:48;;;;;;;73.70;23.38;;;;;;;;;;6310865;28;20131;-64
2022/02/25 10:14:10;;;;;;;44.90;19.60;;;;;;;;;;6307514;28;20121;-64
2022/02/25 10:17:14;;;;;;;58.28;21.33;;;;;;;;;;6306051;28;20412;-64
2022/02/25 10:20:18;;;;;;;48.47;21.48;;;;;;;;;;6308616;28;20514;-65
2022/02/25 10:23:25;;;;;;;50.22;22.02;;;;;;;;;;6307374;28;20127;-65
2022/02/25 10:26:27;;;;;;;40.55;20.42;;;;;;;;;;6310368;28;20051;-65
2022/02/25 10:29:30;;;;;;;40.00;21.67;;;;;;;;;;6306764;28;20044;-63
2022/02/25 10:32:34;;;;;;;37.40;21.05;;;;;;;;;;6304589;28;20166;-63
2022/02/25 10:35:38;;;;;;;40.65;22.02;;;;;;;;;;6304287;28;20044;-63
2022/02/25 10:38:40;;;;;;;193.38;36.28;;;;;;;;;;6306551;28;20582;-64
2022/02/25 10:41:41;;;;;;;199.50;38.13;;;;;;;;;;6307048;28;20076;-64
2022/02/25 10:44:46;;;;;;;75.43;24.38;;;;;;;;;;6303171;28;20048;-64
2022/02/25 10:47:49;;;;;;;63.35;24.95;;;;;;;;;;6310505;28;20189;-64
2022/02/25 10:50:53;;;;;;;65.13;23.42;;;;;;;;;;6304344;28;20135;-63
2022/02/25 10:53:58;;;;;;;50.70;23.48;;;;;;;;;;6307469;28;20116;-64
2022/02/25 10:56:59;;;;;;;84.00;26.67;;;;;;;;;;6304964;28;20055;-63
2022/02/25 11:00:07;;;;;;;41.67;22.33;;;;;;;;;;6302588;28;20056;-64
2022/02/25 11:03:13;;;;;;;36.92;21.13;;;;;;;;;;6301594;28;20121;-63
2022/02/25 11:06:15;;;;;;;39.58;20.20;;;;;;;;;;6306708;28;20465;-64
2022/02/25 11:09:17;;;;;;;31.73;19.75;;;;;;;;;;6302170;28;20044;-65
2022/02/25 11:12:19;;;;;;;32.47;19.85;;;;;;;;;;6307332;28;20221;-64
2022/02/25 11:15:25;;;;;;;34.95;20.65;;;;;;;;;;6304397;28;20185;-64
2022/02/25 11:18:27;;;;;;;32.90;21.48;;;;;;;;;;6309971;28;20044;-63
2022/02/25 11:21:29;;;;;;;35.60;20.73;;;;;;;;;;6308211;28;20068;-64
2022/02/25 11:24:32;;;;;;;37.38;21.70;;;;;;;;;;6306031;28;20170;-65
2022/02/25 11:27:33;;;;;;;35.95;21.92;;;;;;;;;;6303455;28;20052;-64
2022/02/25 11:30:40;;;;;;;30.40;20.60;;;;;;;;;;6306193;28;20060;-64
2022/02/25 11:33:41;;;;;;;32.47;20.42;;;;;;;;;;6304988;28;20048;-64
2022/02/25 11:36:45;;;;;;;35.33;21.33;;;;;;;;;;6302536;28;20127;-64
2022/02/25 11:39:46;;;;;;;36.33;21.23;;;;;;;;;;6304368;28;20086;-64
2022/02/25 11:42:49;;;;;;;36.00;23.10;;;;;;;;;;6304973;28;20072;-64
2022/02/25 11:45:53;;;;;;;39.50;22.98;;;;;;;;;;6308894;28;20047;-63
2022/02/25 11:48:57;;;;;;;37.72;22.98;;;;;;;;;;6306647;28;20044;-64
2022/02/25 11:52:01;;;;;;;37.10;23.90;;;;;;;;;;6305568;28;20051;-66
2022/02/25 11:55:02;;;;;;;39.03;22.48;;;;;;;;;;6300755;28;20055;-65
2022/02/25 11:58:40;;;;;;;37.10;22.73;;;;;;;;;;6307516;28;20066;-65
2022/02/25 12:02:03;;;;;;;38.63;23.95;;;;;;;;;;6306162;28;20135;-65
2022/02/25 12:05:11;;;;;;;;;;;;;;;;;;6305485;28;20449;-63
2022/02/25 12:08:24;;;;;;;36.80;22.48;;;;;;;;;;6302406;28;20014;-64
2022/02/25 12:11:34;;;;;;;36.60;20.65;;;;;;;;;;6301080;28;20175;-64
2022/02/25 12:14:57;;;;;;;33.85;20.17;;;;;;;;;;6297882;28;20040;-64
2022/02/25 12:18:05;;;;;;;34.40;20.25;;;;;;;;;;6301004;28;20044;-65
2022/02/25 12:21:10;;;;;;;30.45;18.88;;;;;;;;;;6300658;28;20582;-66
2022/02/25 12:24:14;;;;;;;32.85;20.40;;;;;;;;;;6305848;28;20157;-66
2022/02/25 12:27:29;;;;;;;34.05;20.00;;;;;;;;;;6312443;28;20126;-66
2022/02/25 12:30:37;;;;;;;29.02;15.82;;;;;;;;;;6313332;28;20127;-66
2022/02/25 12:33:43;;;;;;;27.02;17.02;;;;;;;;;;6308266;28;20055;-65
2022/02/25 12:36:45;;;;;;;28.10;18.02;;;;;;;;;;6307426;28;20120;-65
2022/02/25 12:39:47;;;;;;;27.83;16.53;;;;;;;;;;6307638;28;20048;-64
2022/02/25 12:42:48;;;;;;;27.20;15.88;;;;;;;;;;6305769;28;20334;-64
2022/02/25 12:45:50;;;;;;;26.88;15.65;;;;;;;;;;6304491;28;20126;-66
2022/02/25 12:48:54;;;;;;;24.75;14.65;;;;;;;;;;6303009;28;20053;-65
2022/02/25 12:51:57;;;;;;;34.55;14.40;;;;;;;;;;6300177;28;20044;-65
2022/02/25 12:55:00;;;;;;;25.67;13.38;;;;;;;;;;6298160;28;20121;-64
2022/02/25 12:58:01;;;;;;;21.30;12.32;;;;;;;;;;6300474;28;20059;-64
2022/02/25 13:01:06;;;;;;;25.23;12.02;;;;;;;;;;6302959;28;20174;-65
2022/02/25 13:04:18;;;;;;;64.43;14.25;;;;;;;;;;6309069;28;20044;-67
2022/02/25 13:07:22;;;;;;;44.28;11.60;;;;;;;;;;6316352;28;20663;-65
2022/02/25 13:10:27;;;;;;;19.88;9.50;;;;;;;;;;6312442;28;20123;-64
2022/02/25 13:13:29;;;;;;;13.60;7.57;;;;;;;;;;6314234;28;20189;-64
2022/02/25 13:16:30;;;;;;;22.08;8.98;;;;;;;;;;6311582;28;20158;-66
2022/02/25 13:19:35;;;;;;;16.38;7.72;;;;;;;;;;6309488;28;20469;-65
2022/02/25 13:22:40;;;;;;;16.48;7.82;;;;;;;;;;6310287;28;20127;-65
2022/02/25 13:25:42;;;;;;;16.55;9.77;;;;;;;;;;6306163;28;20056;-65
2022/02/25 13:28:43;;;;;;;19.58;9.93;;;;;;;;;;6307349;28;20124;-65
2022/02/25 13:31:55;;;;;;;19.17;10.60;;;;;;;;;;6305808;28;20051;-65
2022/02/25 13:34:58;;;;;;;19.42;10.57;;;;;;;;;;6313331;28;20054;-65
2022/02/25 13:38:00;;;;;;;;;;;;;;;;;;6313624;28;20059;-65
2022/02/25 13:41:06;;;;;;;20.77;9.88;;;;;;;;;;6312891;28;19930;-65
2022/02/25 13:44:12;;;;;;;17.60;10.02;;;;;;;;;;6311701;28;20124;-65
2022/02/25 13:53:57;;;;;;;17.75;7.47;;;;;;;;;;6307899;28;20091;-67
2022/02/25 13:57:03;;;;;;;7.75;3.90;;;;;;;;;;6310909;28;20497;-66
2022/02/25 14:00:08;;;;;;;10.60;3.80;;;;;;;;;;6309251;28;20104;-66
2022/02/25 14:03:12;;;;;;;7.40;3.30;;;;;;;;;;6305174;28;20177;-66
2022/02/25 14:06:27;;;;;;;44.47;8.18;;;;;;;;;;6306441;28;20048;-68
2022/02/25 14:09:30;;;;;;;34.63;5.30;;;;;;;;;;6303947;28;20052;-66
2022/02/25 14:12:43;;;;;;;225.27;26.70;;;;;;;;;;6303563;28;20109;-66
2022/02/25 14:15:46;;;;;;;12.77;3.35;;;;;;;;;;6307538;28;20666;-66
2022/02/25 14:18:48;;;;;;;4.30;1.70;;;;;;;;;;6309059;28;20044;-66
2022/02/25 14:21:51;;;;;;;3.88;1.35;;;;;;;;;;6305235;28;20534;-64
2022/02/25 14:24:52;;;;;;;6.57;1.50;;;;;;;;;;6314359;28;20059;-64
2022/02/25 14:28:04;;;;;;;3.28;1.15;;;;;;;;;;6310897;28;20177;-65
2022/02/25 14:31:07;;;;;;;4.88;0.82;;;;;;;;;;6307817;28;20041;-64
2022/02/25 14:34:09;;;;;;;9.48;0.90;;;;;;;;;;6308016;28;20056;-64
2022/02/25 14:37:23;;;;;;;5.40;0.88;;;;;;;;;;6309162;28;20064;-66
2022/02/25 14:40:26;;;;;;;9.48;1.23;;;;;;;;;;6305724;28;20093;-66
2022/02/25 14:43:28;;;;;;;11.75;1.02;;;;;;;;;;6310882;28;20473;-65
2022/02/25 14:46:29;;;;;;;4.03;0.57;;;;;;;;;;6310719;28;20504;-65
2022/02/25 14:49:31;;;;;;;4.47;0.93;;;;;;;;;;6304447;28;20185;-65
2022/02/25 14:52:34;;;;;;;23.00;1.92;;;;;;;;;;6305666;28;20079;-65
2022/02/25 14:55:36;;;;;;;7.13;0.90;;;;;;;;;;6305406;28;20123;-65
2022/02/25 14:58:37;;;;;;;14.50;0.73;;;;;;;;;;6304876;28;20127;-65
2022/02/25 15:01:39;;;;;;;11.77;1.33;;;;;;;;;;6307809;28;20518;-65
2022/02/25 15:04:41;;;;;;;15.27;1.30;;;;;;;;;;6308616;28;20078;-65
2022/02/25 15:07:45;;;;;;;13.15;0.70;;;;;;;;;;6309851;28;20079;-65
2022/02/25 15:10:47;;;;;;;11.18;0.88;;;;;;;;;;6308202;28;20049;-65
2022/02/25 15:13:49;;;;;;;9.63;1.52;;;;;;;;;;6304924;28;20089;-66
2022/02/25 15:16:51;;;;;;;12.33;1.37;;;;;;;;;;6302866;28;20056;-65
2022/02/25 15:19:53;;;;;;;3.00;0.40;;;;;;;;;;6305060;28;20446;-63
2022/02/25 15:22:56;;;;;;;13.93;0.80;;;;;;;;;;6304673;28;20072;-65
2022/02/25 15:25:57;;;;;;;9.05;0.70;;;;;;;;;;6308193;28;20127;-65
2022/02/25 15:28:59;;;;;;;7.85;0.73;;;;;;;;;;6308081;28;20104;-65
2022/02/25 15:32:01;;;;;;;8.90;0.63;;;;;;;;;;6305689;28;20127;-65
2022/02/25 15:35:03;;;;;;;3.47;0.90;;;;;;;;;;6307693;28;20119;-64
2022/02/25 15:38:06;;;;;;;4.70;0.50;;;;;;;;;;6305175;28;20064;-66
2022/02/25 15:41:09;;;;;;;4.40;1.02;;;;;;;;;;6305345;28;20143;-67
2022/02/25 15:44:11;;;;;;;4.80;0.73;;;;;;;;;;6306120;28;20060;-67
2022/02/25 15:47:13;;;;;;;8.80;1.15;;;;;;;;;;6310007;28;20056;-66
2022/02/25 15:50:14;;;;;;;15.43;1.50;;;;;;;;;;6296734;28;20411;-63
2022/02/25 15:53:17;;;;;;;5.93;1.10;;;;;;;;;;6307049;28;20055;-66
2022/02/25 15:56:19;;;;;;;12.87;1.07;;;;;;;;;;6305440;28;20486;-66
2022/02/25 15:59:20;;;;;;;11.70;1.25;;;;;;;;;;6303424;28;20655;-63
2022/02/25 16:02:22;;;;;;;10.45;1.17;;;;;;;;;;6309603;28;20072;-66
2022/02/25 16:05:24;;;;;;;20.67;1.65;;;;;;;;;;6305529;28;20197;-66
2022/02/25 16:08:29;;;;;;;10.95;0.80;;;;;;;;;;6303347;28;20051;-66
2022/02/25 16:11:30;;;;;;;31.42;1.90;;;;;;;;;;6300702;28;20105;-65
2022/02/25 16:14:32;;;;;;;21.40;0.95;;;;;;;;;;6303570;28;20068;-65
2022/02/25 16:17:34;;;;;;;19.02;1.27;;;;;;;;;;6299094;28;20044;-66
2022/02/25 16:20:36;;;;;;;18.60;1.20;;;;;;;;;;6302610;28;20135;-66
2022/02/25 16:23:39;;;;;;;15.50;1.08;;;;;;;;;;6304976;28;20079;-65
2022/02/25 16:26:41;;;;;;;11.88;0.98;;;;;;;;;;6310546;28;20576;-65
2022/02/25 16:29:43;;;;;;;16.50;3.05;;;;;;;;;;6307057;28;20079;-64
2022/02/25 16:32:44;;;;;;;17.23;1.80;;;;;;;;;;6316263;28;20079;-65
2022/02/25 16:35:46;;;;;;;21.67;1.63;;;;;;;;;;6310949;28;20044;-66
2022/02/25 16:38:50;;;;;;;19.83;1.48;;;;;;;;;;6305760;28;20185;-65
2022/02/25 16:41:51;;;;;;;17.50;1.15;;;;;;;;;;6309914;28;20041;-65
2022/02/25 16:44:53;;;;;;;13.65;1.23;;;;;;;;;;6308209;28;20131;-65
2022/02/25 16:47:55;;;;;;;15.00;1.00;;;;;;;;;;6306685;28;20162;-65
2022/02/25 16:50:56;;;;;;;15.93;1.73;;;;;;;;;;6307335;28;20072;-65
2022/02/25 16:53:59;;;;;;;6.07;0.73;;;;;;;;;;6308457;28;20109;-64
2022/02/25 16:57:01;;;;;;;7.05;0.90;;;;;;;;;;6308884;28;20072;-65
2022/02/25 17:00:04;;;;;;;3.67;0.80;;;;;;;;;;6307395;28;20139;-65
2022/02/25 17:03:06;;;;;;;9.38;1.67;;;;;;;;;;6312555;28;20166;-65
2022/02/25 17:06:09;;;;;;;1.23;0.60;;;;;;;;;;6310964;28;20087;-64
2022/02/25 17:09:11;;;;;;;1.38;0.40;;;;;;;;;;6319430;28;20058;-66
2022/02/25 17:12:13;;;;;;;11.00;0.80;;;;;;;;;;6317317;28;20064;-65
2022/02/25 17:15:15;;;;;;;9.48;0.70;;;;;;;;;;6310902;28;20111;-64
2022/02/25 17:18:16;;;;;;;1.52;0.40;;;;;;;;;;6309192;28;20048;-64
2022/02/25 17:21:18;;;;;;;7.10;0.98;;;;;;;;;;6308773;28;20596;-65
2022/02/25 17:24:21;;;;;;;6.57;0.68;;;;;;;;;;6309662;28;20167;-65
2022/02/25 17:27:23;;;;;;;3.15;0.60;;;;;;;;;;6313637;28;20618;-65
2022/02/25 17:30:25;;;;;;;13.13;1.20;;;;;;;;;;6308601;28;20044;-65
2022/02/25 17:33:26;;;;;;;10.70;1.52;;;;;;;;;;6309631;28;20055;-65
2022/02/25 17:36:28;;;;;;;18.80;1.27;;;;;;;;;;6310752;28;20141;-65
2022/02/25 17:39:31;;;;;;;6.18;0.57;;;;;;;;;;6310143;28;20055;-66
2022/02/25 17:42:32;;;;;;;19.90;1.10;;;;;;;;;;6310252;28;20496;-65
2022/02/25 17:45:34;;;;;;;3.95;0.88;;;;;;;;;;6318362;28;20131;-67
2022/02/25 17:48:36;;;;;;;11.43;0.90;;;;;;;;;;6314698;28;20185;-64
2022/02/25 17:51:37;;;;;;;2.55;0.50;;;;;;;;;;6315052;28;20044;-67
2022/02/25 17:54:40;;;;;;;3.08;1.20;;;;;;;;;;6313576;28;20043;-65
2022/02/25 17:57:41;;;;;;;5.32;1.02;;;;;;;;;;6308953;28;20484;-65
2022/02/25 18:00:43;;;;;;;3.47;0.60;;;;;;;;;;6306535;28;20047;-65
2022/02/25 18:03:45;;;;;;;4.15;0.60;;;;;;;;;;6307315;28;20499;-64